Time;durP1;ratioP1;P1;durP2;ratioP2;P2;SDS_P1;SDS_P2;PMS_P1;PMS_P2;Temp;Humidity;BMP_temperature;BMP_pressure;BME280_temperature;BME280_humidity;BME280_pressure;Samples;Min_cycle;Max_cycle;Signal;HPM_P1;HPM_P2
2023/03/07 00:00:41;;;;;;;10.20;7.33;;;6.60;99.90;;;;;;4993138;28;20175;-65
2023/03/07 00:03:14;;;;;;;10.20;6.57;;;6.50;99.90;;;;;;4996135;28;20206;-64
2023/03/07 00:05:41;;;;;;;9.23;6.30;;;6.50;99.90;;;;;;4995686;28;20195;-65
2023/03/07 00:08:06;;;;;;;8.73;5.87;;;6.50;99.90;;;;;;4997680;28;20556;-64
2023/03/07 00:10:32;;;;;;;8.70;6.20;;;6.50;99.90;;;;;;4997010;28;20190;-64
2023/03/07 00:12:58;;;;;;;8.67;6.07;;;6.50;99.90;;;;;;4996517;28;20432;-65
2023/03/07 00:15:23;;;;;;;7.60;5.90;;;6.50;99.90;;;;;;4996878;28;20196;-64
2023/03/07 00:17:49;;;;;;;7.27;5.50;;;6.40;99.90;;;;;;4996822;28;20181;-65
2023/03/07 00:20:15;;;;;;;8.20;6.07;;;6.40;99.90;;;;;;4996599;28;20199;-64
2023/03/07 00:22:42;;;;;;;7.97;5.70;;;6.40;99.90;;;;;;4997441;28;20179;-65
2023/03/07 00:25:11;;;;;;;8.20;5.70;;;6.40;99.90;;;;;;4993093;28;20180;-65
2023/03/07 00:27:39;;;;;;;8.10;5.70;;;6.40;99.90;;;;;;4996407;28;20199;-65
2023/03/07 00:30:05;;;;;;;6.50;4.90;;;6.40;99.90;;;;;;4996878;28;20376;-65
2023/03/07 00:32:33;;;;;;;6.53;4.83;;;6.40;99.90;;;;;;4996774;28;20184;-65
2023/03/07 00:35:02;;;;;;;6.67;4.80;;;6.40;99.90;;;;;;4989261;28;20222;-64
2023/03/07 00:37:29;;;;;;;7.27;4.83;;;6.40;99.90;;;;;;4995238;28;20248;-64
2023/03/07 00:39:57;;;;;;;5.80;4.33;;;6.30;99.90;;;;;;4994170;28;20183;-65
2023/03/07 00:42:23;;;;;;;5.70;4.33;;;6.30;99.90;;;;;;4994321;28;20261;-64
2023/03/07 00:44:51;;;;;;;5.37;4.17;;;6.30;99.90;;;;;;4990973;28;20192;-65
2023/03/07 00:47:18;;;;;;;5.60;4.10;;;6.30;99.90;;;;;;4994346;28;20179;-65
2023/03/07 00:49:47;;;;;;;5.23;3.97;;;6.30;99.90;;;;;;4994870;28;20275;-65
2023/03/07 00:52:14;;;;;;;5.63;4.43;;;6.30;99.90;;;;;;5007397;28;20207;-64
2023/03/07 00:54:40;;;;;;;4.43;3.47;;;6.40;99.90;;;;;;4993179;28;20195;-64
2023/03/07 00:57:06;;;;;;;5.13;3.70;;;6.40;99.90;;;;;;4993676;28;20185;-65
2023/03/07 00:59:31;;;;;;;5.17;3.90;;;6.40;99.90;;;;;;4991447;28;20259;-64
2023/03/07 01:01:59;;;;;;;5.00;4.07;;;6.40;99.90;;;;;;4994964;28;20167;-64
2023/03/07 01:04:30;;;;;;;4.93;3.73;;;6.40;99.90;;;;;;4993409;28;20432;-65
2023/03/07 01:07:00;;;;;;;5.07;3.80;;;6.40;99.90;;;;;;4994174;28;20183;-64
2023/03/07 01:09:25;;;;;;;4.33;3.40;;;6.50;99.90;;;;;;4995094;28;20228;-64
2023/03/07 01:11:56;;;;;;;4.13;3.23;;;6.40;99.90;;;;;;4994531;28;20171;-66
2023/03/07 01:14:23;;;;;;;3.80;2.90;;;6.40;99.90;;;;;;4994060;28;20187;-64
2023/03/07 01:16:49;;;;;;;3.33;2.83;;;6.50;99.90;;;;;;4994176;28;20182;-65
2023/03/07 01:19:17;;;;;;;3.73;2.70;;;6.50;99.90;;;;;;4994226;28;20183;-63
2023/03/07 01:21:43;;;;;;;3.20;2.47;;;6.50;99.90;;;;;;4991398;28;20282;-65
2023/03/07 01:24:13;;;;;;;4.03;3.00;;;6.50;99.90;;;;;;4993836;28;20262;-64
2023/03/07 01:26:38;;;;;;;4.00;2.97;;;6.50;99.90;;;;;;4991422;28;20172;-65
2023/03/07 01:29:05;;;;;;;3.63;2.80;;;6.50;99.90;;;;;;4993270;28;20232;-65
2023/03/07 01:31:31;;;;;;;3.20;2.73;;;6.40;99.90;;;;;;4993282;28;20180;-65
2023/03/07 01:33:57;;;;;;;3.13;2.40;;;6.50;99.90;;;;;;4994701;28;20248;-65
2023/03/07 01:36:28;;;;;;;2.83;2.37;;;6.50;99.90;;;;;;4993125;28;20210;-65
2023/03/07 01:39:03;;;;;;;3.70;2.20;;;6.50;99.90;;;;;;4990201;28;20179;-64
2023/03/07 01:41:32;;;;;;;2.60;2.13;;;6.50;99.90;;;;;;4989844;28;20171;-64
2023/03/07 01:44:11;;;;;;;2.53;2.07;;;6.60;99.90;;;;;;4990548;28;20197;-65
2023/03/07 01:46:47;;;;;;;2.33;1.80;;;6.50;99.90;;;;;;5006696;28;20199;-65
2023/03/07 01:49:39;;;;;;;2.27;1.80;;;6.50;99.90;;;;;;4991558;28;20183;-65
2023/03/07 01:52:14;;;;;;;2.47;2.00;;;6.50;99.90;;;;;;4991002;28;20218;-65
2023/03/07 01:54:51;;;;;;;1.93;1.60;;;6.60;99.90;;;;;;4995551;28;22485;-65
2023/03/07 01:57:24;;;;;;;1.50;1.33;;;6.60;99.90;;;;;;4993223;28;20261;-65
2023/03/07 01:59:53;;;;;;;1.90;1.50;;;6.60;99.90;;;;;;4992325;28;20183;-64
2023/03/07 02:02:21;;;;;;;1.93;1.50;;;6.60;99.90;;;;;;4993060;28;20234;-62
2023/03/07 02:05:12;;;;;;;1.27;1.10;;;6.60;99.90;;;;;;4993700;28;20241;-66
2023/03/07 02:07:49;;;;;;;1.87;1.50;;;6.60;99.90;;;;;;4990280;28;20218;-65
2023/03/07 02:10:20;;;;;;;2.27;1.30;;;6.60;99.90;;;;;;5001253;28;20281;-66
2023/03/07 02:12:46;;;;;;;2.00;1.60;;;6.60;99.90;;;;;;4999196;28;20194;-66
2023/03/07 02:15:13;;;;;;;2.17;1.90;;;6.60;99.90;;;;;;4995281;28;20207;-64
2023/03/07 02:17:40;;;;;;;1.80;1.43;;;6.70;99.90;;;;;;4994542;28;20190;-63
2023/03/07 02:20:43;;;;;;;1.77;1.57;;;6.60;99.90;;;;;;4994597;28;20183;-63
2023/03/07 02:23:29;;;;;;;1.60;1.40;;;6.60;99.90;;;;;;4994828;28;20278;-63
2023/03/07 02:26:00;;;;;;;1.57;1.33;;;6.60;99.90;;;;;;5010948;28;20183;-64
2023/03/07 02:28:27;;;;;;;2.03;1.63;;;6.60;99.90;;;;;;4994840;28;20199;-64
2023/03/07 02:31:05;;;;;;;2.10;1.80;;;6.70;99.90;;;;;;4993416;28;20175;-63
2023/03/07 02:33:33;;;;;;;1.90;1.70;;;6.70;99.90;;;;;;4995451;28;20181;-63
2023/03/07 02:36:14;;;;;;;1.80;1.43;;;6.70;99.90;;;;;;4995087;28;20226;-63
2023/03/07 02:38:43;;;;;;;2.10;1.80;;;6.70;99.90;;;;;;4993018;28;20176;-64
2023/03/07 02:41:17;;;;;;;2.07;1.87;;;6.80;99.90;;;;;;5007952;28;20186;-64
2023/03/07 02:43:45;;;;;;;2.00;1.60;;;6.70;99.90;;;;;;5008371;28;20246;-64
2023/03/07 02:46:10;;;;;;;2.43;2.07;;;6.80;99.90;;;;;;4993324;28;20183;-65
2023/03/07 02:48:36;;;;;;;2.10;1.90;;;6.70;99.90;;;;;;4990178;28;20194;-64
2023/03/07 02:51:02;;;;;;;2.20;2.00;;;6.80;99.90;;;;;;4989082;28;20199;-64
2023/03/07 02:53:27;;;;;;;2.30;2.10;;;6.80;99.90;;;;;;4991938;28;20191;-64
2023/03/07 02:55:53;;;;;;;2.77;2.40;;;6.80;99.90;;;;;;4992392;28;20226;-64
2023/03/07 02:58:21;;;;;;;2.43;2.10;;;6.80;99.90;;;;;;4992235;28;20175;-65
2023/03/07 03:00:49;;;;;;;2.50;2.30;;;6.80;99.90;;;;;;4991272;28;20202;-65
2023/03/07 03:03:17;;;;;;;2.60;2.40;;;6.80;99.90;;;;;;4992223;28;20180;-64
2023/03/07 03:05:42;;;;;;;2.43;2.20;;;6.80;99.90;;;;;;4992474;28;20203;-64
2023/03/07 03:08:08;;;;;;;2.40;2.07;;;6.80;99.90;;;;;;4993209;28;20206;-64
2023/03/07 03:10:36;;;;;;;2.83;2.50;;;6.80;99.90;;;;;;4992951;28;20179;-65
2023/03/07 03:13:01;;;;;;;3.27;2.93;;;6.80;99.90;;;;;;4990005;28;20232;-65
2023/03/07 03:15:27;;;;;;;2.93;2.63;;;6.80;99.90;;;;;;4991758;28;20208;-64
2023/03/07 03:17:53;;;;;;;2.80;2.50;;;6.90;99.90;;;;;;4994214;28;20182;-64
2023/03/07 03:20:24;;;;;;;3.30;2.70;;;6.80;99.90;;;;;;4992821;28;20171;-64
2023/03/07 03:22:53;;;;;;;2.97;2.60;;;6.90;99.90;;;;;;4991427;28;20223;-65
2023/03/07 03:25:23;;;;;;;3.77;2.93;;;6.80;99.90;;;;;;5004749;28;20191;-64
2023/03/07 03:27:54;;;;;;;3.13;2.77;;;6.80;99.90;;;;;;4991033;28;20261;-64
2023/03/07 03:30:22;;;;;;;3.30;2.80;;;6.80;99.90;;;;;;5005921;28;20219;-64
2023/03/07 03:32:55;;;;;;;3.77;3.00;;;6.80;99.90;;;;;;4994974;28;20187;-64
2023/03/07 03:35:20;;;;;;;2.50;2.30;;;6.80;99.90;;;;;;5009799;28;20191;-65
2023/03/07 03:37:48;;;;;;;2.93;2.50;;;6.80;99.90;;;;;;4995495;28;20193;-64
2023/03/07 03:40:16;;;;;;;3.27;2.97;;;6.90;99.90;;;;;;5010613;28;20182;-64
2023/03/07 03:42:43;;;;;;;3.83;3.20;;;6.80;99.90;;;;;;4993430;28;20266;-64
2023/03/07 03:45:13;;;;;;;4.67;3.37;;;6.90;99.90;;;;;;4995462;28;20455;-65
2023/03/07 03:47:41;;;;;;;3.93;2.87;;;6.80;99.90;;;;;;4994251;28;20194;-65
2023/03/07 03:50:08;;;;;;;3.47;2.83;;;6.90;99.90;;;;;;4995117;28;20184;-64
2023/03/07 03:52:43;;;;;;;3.43;3.00;;;6.80;99.90;;;;;;4995854;28;20247;-64
2023/03/07 03:55:09;;;;;;;4.17;3.40;;;6.80;99.90;;;;;;4992853;28;20227;-64
2023/03/07 03:57:35;;;;;;;3.60;3.20;;;6.80;99.90;;;;;;4995637;28;20179;-65
2023/03/07 04:00:01;;;;;;;3.93;3.30;;;6.80;99.90;;;;;;4995221;28;20330;-64
2023/03/07 04:02:29;;;;;;;4.37;3.77;;;6.80;99.90;;;;;;4995577;28;20179;-64
2023/03/07 04:04:54;;;;;;;4.73;3.57;;;6.80;99.90;;;;;;4995260;28;20278;-65
2023/03/07 04:07:21;;;;;;;3.97;3.17;;;6.90;99.90;;;;;;4995850;28;20349;-64
2023/03/07 04:09:46;;;;;;;4.17;3.37;;;6.90;99.90;;;;;;4996443;28;20222;-64
2023/03/07 04:12:16;;;;;;;3.47;3.00;;;6.80;99.90;;;;;;4997302;28;20232;-65
2023/03/07 04:14:45;;;;;;;4.13;3.70;;;6.80;99.90;;;;;;4997113;28;20207;-64
2023/03/07 04:17:12;;;;;;;4.80;3.90;;;6.80;99.90;;;;;;4997565;28;20171;-64
2023/03/07 04:19:38;;;;;;;4.17;3.40;;;6.80;99.90;;;;;;4996869;28;20179;-65
2023/03/07 04:22:06;;;;;;;4.47;3.50;;;6.80;99.90;;;;;;4996962;28;20206;-64
2023/03/07 04:24:34;;;;;;;4.00;3.60;;;6.80;99.90;;;;;;4997241;28;20201;-64
2023/03/07 04:26:59;;;;;;;4.37;3.90;;;6.80;99.90;;;;;;4999557;28;20225;-78
2023/03/07 04:29:25;;;;;;;4.63;3.97;;;6.80;99.90;;;;;;4996560;28;20196;-77
2023/03/07 04:31:51;;;;;;;5.20;4.30;;;6.80;99.90;;;;;;4993301;28;20176;-75
2023/03/07 04:34:19;;;;;;;4.67;3.63;;;6.80;99.90;;;;;;4978025;28;20231;-73
2023/03/07 04:36:46;;;;;;;5.67;4.33;;;6.80;99.90;;;;;;4994667;28;20203;-76
2023/03/07 04:39:17;;;;;;;5.37;4.53;;;6.80;99.90;;;;;;4992976;28;20238;-76
2023/03/07 04:41:42;;;;;;;5.50;4.37;;;6.80;99.90;;;;;;4992100;28;20175;-77
2023/03/07 04:44:08;;;;;;;5.30;4.50;;;6.80;99.90;;;;;;4990331;28;20244;-68
2023/03/07 04:46:34;;;;;;;6.37;5.00;;;6.80;99.90;;;;;;4993704;28;20198;-76
2023/03/07 04:48:59;;;;;;;5.90;4.70;;;6.80;99.90;;;;;;4992858;28;20183;-75
2023/03/07 04:51:25;;;;;;;6.07;4.90;;;6.80;99.90;;;;;;4992305;28;20215;-78
2023/03/07 04:53:51;;;;;;;7.57;5.60;;;6.80;99.90;;;;;;4992505;28;20187;-76
2023/03/07 04:56:16;;;;;;;6.03;4.93;;;6.80;99.90;;;;;;4993415;28;20226;-76
2023/03/07 04:58:43;;;;;;;6.40;5.10;;;6.80;99.90;;;;;;4994275;28;20190;-73
2023/03/07 05:01:09;;;;;;;6.10;4.80;;;6.80;99.90;;;;;;4994546;28;20217;-76
2023/03/07 05:03:41;;;;;;;7.27;5.43;;;6.80;99.90;;;;;;4991457;28;20264;-71
2023/03/07 05:06:12;;;;;;;6.87;5.70;;;6.80;99.90;;;;;;5007107;28;20202;-78
2023/03/07 05:08:42;;;;;;;6.67;5.27;;;6.80;99.90;;;;;;4993967;28;20247;-76
2023/03/07 05:11:08;;;;;;;7.63;6.00;;;6.80;99.90;;;;;;4994131;28;20429;-76
2023/03/07 05:13:36;;;;;;;7.70;5.63;;;6.80;99.90;;;;;;4994157;28;20270;-77
2023/03/07 05:16:01;;;;;;;6.50;5.37;;;6.80;99.90;;;;;;4992553;28;20466;-74
2023/03/07 05:18:27;;;;;;;6.97;5.80;;;6.90;99.90;;;;;;4992572;28;20211;-74
2023/03/07 05:20:53;;;;;;;5.60;4.67;;;6.80;99.90;;;;;;4992328;28;20176;-76
2023/03/07 05:23:19;;;;;;;8.37;6.00;;;6.90;99.90;;;;;;4992033;28;20246;-73
2023/03/07 05:25:47;;;;;;;7.53;5.67;;;6.90;99.90;;;;;;4991384;28;20420;-78
2023/03/07 05:28:18;;;;;;;7.20;5.90;;;7.00;99.90;;;;;;5007671;28;20191;-73
2023/03/07 05:30:45;;;;;;;7.03;5.90;;;7.00;99.90;;;;;;4995514;28;20203;-70
2023/03/07 05:33:10;;;;;;;7.10;5.10;;;6.90;99.90;;;;;;4993006;28;20187;-70
2023/03/07 05:35:37;;;;;;;7.57;5.97;;;6.90;99.90;;;;;;4990911;28;20411;-71
2023/03/07 05:38:03;;;;;;;7.73;6.10;;;7.00;99.90;;;;;;4992377;28;20261;-71
2023/03/07 05:40:29;;;;;;;7.60;6.20;;;7.00;99.90;;;;;;4992855;28;20179;-67
2023/03/07 05:42:54;;;;;;;8.57;6.27;;;7.00;99.90;;;;;;4994372;28;20211;-70
2023/03/07 05:45:25;;;;;;;7.90;6.33;;;7.00;99.90;;;;;;4991722;28;20211;-77
2023/03/07 05:47:51;;;;;;;7.77;5.90;;;7.00;99.90;;;;;;4994102;28;20185;-76
2023/03/07 05:50:17;;;;;;;7.20;6.00;;;7.00;99.90;;;;;;5006524;28;20179;-72
2023/03/07 05:52:43;;;;;;;6.60;5.90;;;7.00;99.90;;;;;;4992224;28;20222;-70
2023/03/07 05:55:09;;;;;;;7.97;6.30;;;6.90;99.90;;;;;;4991783;28;20196;-75
2023/03/07 05:57:35;;;;;;;8.43;6.30;;;6.90;99.90;;;;;;4990696;28;20184;-74
2023/03/07 06:00:00;;;;;;;7.73;5.97;;;7.00;99.90;;;;;;4991506;28;20206;-79
2023/03/07 06:02:26;;;;;;;8.53;6.13;;;6.90;99.90;;;;;;4993136;28;20210;-77
2023/03/07 06:04:51;;;;;;;10.00;6.60;;;7.00;99.90;;;;;;4990139;28;20188;-76
2023/03/07 06:07:17;;;;;;;8.60;6.67;;;6.90;99.90;;;;;;5009237;28;20206;-75
2023/03/07 06:09:43;;;;;;;7.17;5.90;;;7.00;99.90;;;;;;4997002;28;20183;-78
2023/03/07 06:12:09;;;;;;;9.43;6.80;;;7.00;99.90;;;;;;4978551;28;20223;-75
2023/03/07 06:14:35;;;;;;;9.20;6.20;;;7.00;99.90;;;;;;4978633;28;20187;-80
2023/03/07 06:17:02;;;;;;;8.03;6.10;;;7.00;99.90;;;;;;4994894;28;20175;-77
2023/03/07 06:19:28;;;;;;;8.13;6.13;;;6.90;99.90;;;;;;4994659;28;20175;-77
2023/03/07 06:21:54;;;;;;;8.23;6.53;;;7.00;99.90;;;;;;4991476;28;20242;-74
2023/03/07 06:24:21;;;;;;;7.17;5.70;;;7.00;99.90;;;;;;4991198;28;20196;-79
2023/03/07 06:26:49;;;;;;;7.33;5.70;;;7.00;99.90;;;;;;4995347;28;20286;-78
2023/03/07 06:29:15;;;;;;;7.60;5.77;;;7.00;99.90;;;;;;4995095;28;20179;-79
2023/03/07 06:31:40;;;;;;;7.70;6.10;;;7.10;99.90;;;;;;4994704;28;20186;-76
2023/03/07 06:34:07;;;;;;;7.10;5.60;;;7.00;99.90;;;;;;4999131;28;20228;-79
2023/03/07 06:36:32;;;;;;;7.77;6.33;;;7.00;99.90;;;;;;5013228;28;20206;-80
2023/03/07 06:38:58;;;;;;;8.03;6.17;;;7.10;99.90;;;;;;4992402;28;20175;-76
2023/03/07 06:41:26;;;;;;;8.33;5.97;;;7.10;99.90;;;;;;4991546;28;20259;-77
2023/03/07 06:43:55;;;;;;;7.67;5.50;;;7.00;99.90;;;;;;4991554;28;20244;-74
2023/03/07 06:46:21;;;;;;;7.47;5.53;;;7.10;99.90;;;;;;4991906;28;20175;-79
2023/03/07 06:48:50;;;;;;;7.37;5.53;;;7.10;99.90;;;;;;4991202;28;20250;-74
2023/03/07 06:51:16;;;;;;;7.23;5.60;;;7.10;99.90;;;;;;4991148;28;20215;-79
2023/03/07 06:53:46;;;;;;;7.17;5.53;;;7.10;99.90;;;;;;4988004;28;20194;-72
2023/03/07 06:56:11;;;;;;;7.90;5.60;;;7.10;99.90;;;;;;4992252;28;20199;-78
2023/03/07 06:58:37;;;;;;;6.00;5.10;;;7.20;99.90;;;;;;4992248;28;20263;-70
2023/03/07 07:01:04;;;;;;;7.77;5.70;;;7.10;99.90;;;;;;4993307;28;20171;-79
2023/03/07 07:03:33;;;;;;;6.60;5.67;;;7.20;99.90;;;;;;4991599;28;20179;-76
2023/03/07 07:06:01;;;;;;;6.80;5.37;;;7.20;99.90;;;;;;4994168;28;20183;-78
2023/03/07 07:08:32;;;;;;;8.37;5.57;;;7.20;99.90;;;;;;5000636;28;20189;-77
2023/03/07 07:10:58;;;;;;;6.67;5.47;;;7.20;99.90;;;;;;4994805;28;20195;-80
2023/03/07 07:13:26;;;;;;;6.63;5.10;;;7.30;99.90;;;;;;4996804;28;20191;-75
2023/03/07 07:15:51;;;;;;;7.97;5.63;;;7.20;99.90;;;;;;4994631;28;20199;-75
2023/03/07 07:18:22;;;;;;;7.60;5.20;;;7.20;99.90;;;;;;4996534;28;20210;-77
2023/03/07 07:20:56;;;;;;;6.57;5.07;;;7.30;99.90;;;;;;4991155;28;20183;-77
2023/03/07 07:23:22;;;;;;;6.97;5.23;;;7.30;99.90;;;;;;4995614;28;21462;-77
2023/03/07 07:25:50;;;;;;;7.03;4.80;;;7.30;99.90;;;;;;4995806;28;20187;-75
2023/03/07 07:28:18;;;;;;;6.67;5.00;;;7.30;99.90;;;;;;4996221;28;20198;-72
2023/03/07 07:30:44;;;;;;;5.83;4.40;;;7.30;99.90;;;;;;4995575;28;20278;-77
2023/03/07 07:33:11;;;;;;;5.93;4.57;;;7.40;99.90;;;;;;4996043;28;20318;-76
2023/03/07 07:35:38;;;;;;;6.23;4.77;;;7.40;99.90;;;;;;4995806;28;20297;-79
2023/03/07 07:38:06;;;;;;;6.93;4.50;;;7.40;99.90;;;;;;4996056;28;20674;-79
2023/03/07 07:40:31;;;;;;;6.97;5.23;;;7.40;99.90;;;;;;4995751;28;20194;-79
2023/03/07 07:42:57;;;;;;;6.37;4.40;;;7.50;99.90;;;;;;4997477;28;20206;-78
2023/03/07 07:45:25;;;;;;;7.07;5.20;;;7.50;99.90;;;;;;4998014;28;20190;-70
2023/03/07 07:47:51;;;;;;;6.70;5.10;;;7.60;99.90;;;;;;4993949;28;20361;-80
2023/03/07 07:50:19;;;;;;;7.10;5.40;;;7.60;99.90;;;;;;4994226;28;20219;-80
2023/03/07 07:52:46;;;;;;;7.60;5.33;;;7.50;99.90;;;;;;4991298;28;20203;-78
2023/03/07 07:55:15;;;;;;;7.63;5.43;;;7.60;99.90;;;;;;4995469;28;20221;-74
2023/03/07 07:57:41;;;;;;;7.40;5.57;;;7.60;99.90;;;;;;4994648;28;20262;-79
2023/03/07 08:00:09;;;;;;;8.03;4.87;;;7.60;99.90;;;;;;4994250;28;20188;-74
2023/03/07 08:02:35;;;;;;;7.17;5.47;;;7.60;99.90;;;;;;4995369;28;20238;-76
2023/03/07 08:05:00;;;;;;;6.60;5.30;;;7.60;99.90;;;;;;4995217;28;20183;-79
2023/03/07 08:07:26;;;;;;;7.43;5.70;;;7.60;99.90;;;;;;4995676;28;20286;-79
2023/03/07 08:09:52;;;;;;;6.87;5.43;;;7.60;99.90;;;;;;4987722;28;20264;-79
2023/03/07 08:12:17;;;;;;;7.57;5.60;;;7.70;99.90;;;;;;4999442;28;20202;-77
2023/03/07 08:14:48;;;;;;;6.57;5.13;;;7.70;99.90;;;;;;4997573;28;20291;-79
2023/03/07 08:17:13;;;;;;;6.23;5.00;;;7.70;99.90;;;;;;4996894;28;20183;-78
2023/03/07 08:19:39;;;;;;;6.30;5.20;;;7.70;99.90;;;;;;4997559;28;20195;-77
2023/03/07 08:22:07;;;;;;;7.43;5.47;;;7.70;99.90;;;;;;4997802;28;20256;-79
2023/03/07 08:24:35;;;;;;;7.20;5.30;;;7.70;99.90;;;;;;4997849;28;20203;-79
2023/03/07 08:27:00;;;;;;;9.10;5.93;;;7.70;99.90;;;;;;4997461;28;20175;-74
2023/03/07 08:29:27;;;;;;;6.87;5.53;;;7.70;99.90;;;;;;4997376;28;20198;-80
2023/03/07 08:31:53;;;;;;;6.50;5.03;;;7.70;99.90;;;;;;5007544;28;20256;-78
2023/03/07 08:34:19;;;;;;;6.43;5.30;;;7.70;99.90;;;;;;5010019;28;20243;-78
2023/03/07 08:36:45;;;;;;;6.70;5.33;;;7.70;99.90;;;;;;5001104;28;20210;-71
2023/03/07 08:39:13;;;;;;;7.23;5.33;;;7.60;99.90;;;;;;4994124;28;20171;-78
2023/03/07 08:41:41;;;;;;;7.10;5.20;;;7.60;99.90;;;;;;4993963;28;20208;-78
2023/03/07 08:44:07;;;;;;;6.03;5.10;;;7.70;99.90;;;;;;4995426;28;20198;-78
2023/03/07 08:46:32;;;;;;;7.13;5.23;;;7.70;99.90;;;;;;4995398;28;20183;-78
2023/03/07 08:49:00;;;;;;;8.27;5.20;;;7.70;99.90;;;;;;4995044;28;20262;-79
2023/03/07 08:51:26;;;;;;;5.90;4.60;;;7.70;99.90;;;;;;4991041;28;20269;-77
2023/03/07 08:53:52;;;;;;;6.03;4.70;;;7.70;99.90;;;;;;4994619;28;20199;-78
2023/03/07 08:56:18;;;;;;;5.70;4.60;;;7.90;99.90;;;;;;4994038;28;20203;-76
2023/03/07 08:58:44;;;;;;;5.30;4.30;;;7.80;99.90;;;;;;4994763;28;20233;-73
2023/03/07 09:01:11;;;;;;;6.10;4.53;;;7.90;99.90;;;;;;4994408;28;20285;-78
2023/03/07 09:03:37;;;;;;;6.13;4.47;;;7.90;99.90;;;;;;4994248;28;20187;-75
2023/03/07 09:06:04;;;;;;;5.10;4.27;;;7.90;99.90;;;;;;4997630;28;20183;-79
2023/03/07 09:08:30;;;;;;;5.70;4.47;;;8.00;99.90;;;;;;4997428;28;20199;-78
2023/03/07 09:10:59;;;;;;;6.77;4.57;;;8.00;99.90;;;;;;4994084;28;20187;-77
2023/03/07 09:13:25;;;;;;;5.83;4.63;;;8.00;99.90;;;;;;4995747;28;20254;-77
2023/03/07 09:15:51;;;;;;;6.47;4.97;;;8.00;99.90;;;;;;4996266;28;20211;-78
2023/03/07 09:18:18;;;;;;;5.37;4.20;;;8.10;99.90;;;;;;4994323;28;20193;-73
2023/03/07 09:20:51;;;;;;;5.87;4.47;;;8.10;99.90;;;;;;4992992;28;20213;-72
2023/03/07 09:23:17;;;;;;;5.20;4.17;;;8.10;99.90;;;;;;4991106;28;20179;-76
2023/03/07 09:25:43;;;;;;;5.67;4.13;;;8.10;99.90;;;;;;4994695;28;20210;-78
2023/03/07 09:28:11;;;;;;;5.57;4.27;;;8.10;99.90;;;;;;4993825;28;20191;-77
2023/03/07 09:30:39;;;;;;;5.00;4.07;;;8.10;99.90;;;;;;4993992;28;20258;-78
2023/03/07 09:33:06;;;;;;;5.50;4.37;;;8.10;99.90;;;;;;4991813;28;20198;-77
2023/03/07 09:35:34;;;;;;;4.50;3.43;;;8.10;99.90;;;;;;4992962;28;20256;-77
2023/03/07 09:38:02;;;;;;;4.83;4.00;;;8.10;99.90;;;;;;4993307;28;20203;-77
2023/03/07 09:40:28;;;;;;;4.47;3.40;;;8.20;99.90;;;;;;4992891;28;20179;-78
2023/03/07 09:42:54;;;;;;;5.13;3.50;;;8.20;99.90;;;;;;4993187;28;20421;-77
2023/03/07 09:45:29;;;;;;;3.83;3.20;;;8.20;99.90;;;;;;4991044;28;20203;-79
2023/03/07 09:48:18;;;;;;;5.77;3.80;;;8.30;99.90;;;;;;4993890;28;20182;-77
2023/03/07 09:51:02;;;;;;;4.30;3.60;;;8.40;99.90;;;;;;4991259;28;20203;-77
2023/03/07 09:53:43;;;;;;;5.97;3.90;;;8.50;99.90;;;;;;4994287;28;20198;-78
2023/03/07 09:56:18;;;;;;;4.50;3.50;;;8.50;99.90;;;;;;4993006;28;20260;-74
2023/03/07 09:59:06;;;;;;;3.33;2.90;;;8.50;99.90;;;;;;4993163;28;20171;-77
2023/03/07 10:01:38;;;;;;;4.07;3.20;;;8.50;99.90;;;;;;4971322;28;20235;-77
2023/03/07 10:04:22;;;;;;;3.83;3.10;;;8.60;99.90;;;;;;5007451;28;20242;-77
2023/03/07 10:06:56;;;;;;;3.60;3.00;;;8.60;99.90;;;;;;4981079;28;20196;-77
2023/03/07 10:09:27;;;;;;;3.60;3.00;;;8.60;99.90;;;;;;4976093;28;20183;-79
2023/03/07 10:11:59;;;;;;;3.73;2.90;;;8.50;99.90;;;;;;5008010;28;20190;-77
2023/03/07 10:14:40;;;;;;;4.03;3.13;;;8.60;99.90;;;;;;4990043;28;20263;-79
2023/03/07 10:17:13;;;;;;;3.17;2.80;;;8.50;99.90;;;;;;4992434;28;20211;-79
2023/03/07 10:20:14;;;;;;;3.77;2.80;;;8.50;99.90;;;;;;4992740;28;20183;-78
2023/03/07 10:23:11;;;;;;;3.87;3.00;;;8.50;99.90;;;;;;4966790;28;20192;-76
2023/03/07 10:25:49;;;;;;;4.27;2.80;;;8.40;99.90;;;;;;5006672;28;20190;-76
2023/03/07 10:28:36;;;;;;;3.60;2.83;;;8.50;99.90;;;;;;4994886;28;20213;-79
2023/03/07 10:31:14;;;;;;;3.50;2.80;;;8.40;99.90;;;;;;4994884;28;20175;-79
2023/03/07 10:33:50;;;;;;;3.20;2.47;;;8.40;99.90;;;;;;5011164;28;20179;-77
2023/03/07 10:36:39;;;;;;;3.63;2.80;;;8.40;99.90;;;;;;4991379;28;20207;-75
2023/03/07 10:39:25;;;;;;;3.43;2.80;;;8.50;99.90;;;;;;4992054;28;20186;-76
2023/03/07 10:41:54;;;;;;;4.20;2.50;;;8.50;99.90;;;;;;4991387;28;20481;-78
2023/03/07 10:44:22;;;;;;;3.07;2.40;;;8.50;99.90;;;;;;4991050;28;20262;-74
2023/03/07 10:46:56;;;;;;;3.10;2.80;;;8.60;99.90;;;;;;4991456;28;20176;-78
2023/03/07 10:49:34;;;;;;;3.20;2.33;;;8.70;99.90;;;;;;4991949;28;20442;-79
2023/03/07 10:52:11;;;;;;;3.30;2.63;;;8.70;99.90;;;;;;4987933;28;20285;-77
2023/03/07 10:54:38;;;;;;;3.90;2.93;;;8.70;99.90;;;;;;5007342;28;20209;-79
2023/03/07 10:57:13;;;;;;;3.27;2.60;;;8.80;99.90;;;;;;4991238;28;20180;-78
2023/03/07 10:59:47;;;;;;;3.43;2.70;;;8.80;99.90;;;;;;4988238;28;20175;-77
2023/03/07 11:02:29;;;;;;;5.37;2.60;;;8.80;99.90;;;;;;4989620;28;20233;-78
2023/03/07 11:04:54;;;;;;;3.60;2.67;;;8.90;99.90;;;;;;4992961;28;20176;-79
2023/03/07 11:07:27;;;;;;;3.17;2.80;;;8.90;99.90;;;;;;4994044;28;20277;-77
2023/03/07 11:09:56;;;;;;;4.50;3.30;;;8.90;99.90;;;;;;4989053;28;20172;-76
2023/03/07 11:12:24;;;;;;;3.27;2.70;;;8.90;99.90;;;;;;4993173;28;20171;-79
2023/03/07 11:14:52;;;;;;;3.93;2.90;;;9.00;99.90;;;;;;4989982;28;20227;-78
2023/03/07 11:17:23;;;;;;;3.60;3.00;;;9.00;99.90;;;;;;4991422;28;20188;-74
2023/03/07 11:19:58;;;;;;;4.80;2.90;;;9.00;99.90;;;;;;4992311;28;20252;-75
2023/03/07 11:22:32;;;;;;;3.90;2.70;;;9.00;99.90;;;;;;4992281;28;20193;-77
2023/03/07 11:25:00;;;;;;;3.93;3.00;;;9.00;99.90;;;;;;4991636;28;20206;-77
2023/03/07 11:27:56;;;;;;;4.37;2.87;;;9.00;99.90;;;;;;4991854;28;20172;-76
2023/03/07 11:30:24;;;;;;;4.13;2.97;;;9.10;99.90;;;;;;5005851;28;20258;-76
2023/03/07 11:33:02;;;;;;;3.60;2.87;;;9.00;99.90;;;;;;4992475;28;20258;-77
2023/03/07 11:35:51;;;;;;;4.13;3.00;;;9.00;99.90;;;;;;4991344;28;20202;-74
2023/03/07 11:38:34;;;;;;;3.07;2.77;;;9.00;99.90;;;;;;4991390;28;20202;-75
2023/03/07 11:41:06;;;;;;;2.97;2.40;;;9.00;99.90;;;;;;4991230;28;20171;-77
2023/03/07 11:43:40;;;;;;;3.30;2.90;;;9.00;99.90;;;;;;4991016;28;20182;-75
2023/03/07 11:46:26;;;;;;;3.17;2.53;;;9.00;99.90;;;;;;4989630;28;20455;-78
2023/03/07 11:49:20;;;;;;;3.83;3.00;;;9.00;99.90;;;;;;4990640;28;20213;-75
2023/03/07 11:52:04;;;;;;;3.80;2.77;;;9.10;99.90;;;;;;4990039;28;20269;-76
2023/03/07 11:54:53;;;;;;;3.80;3.03;;;9.10;99.90;;;;;;4992646;28;20175;-76
2023/03/07 11:57:34;;;;;;;2.93;2.47;;;9.20;99.90;;;;;;4985036;28;20207;-79
2023/03/07 12:00:32;;;;;;;4.23;2.67;;;9.20;99.90;;;;;;4993135;28;20214;-78
2023/03/07 12:03:13;;;;;;;3.05;2.38;;;9.20;99.90;;;;;;4992619;28;20202;-78
2023/03/07 12:05:45;;;;;;;3.60;2.43;;;9.30;99.90;;;;;;5003106;28;20409;-76
2023/03/07 12:08:31;;;;;;;4.93;3.00;;;9.30;99.90;;;;;;5023103;28;20178;-77
2023/03/07 12:11:15;;;;;;;3.80;2.87;;;9.30;99.90;;;;;;4994604;28;20286;-78
2023/03/07 12:13:57;;;;;;;5.20;2.90;;;9.30;99.90;;;;;;4992444;28;20260;-77
2023/03/07 12:16:31;;;;;;;6.73;2.83;;;9.40;99.90;;;;;;4994934;28;20249;-76
2023/03/07 12:19:36;;;;;;;4.30;3.03;;;9.30;99.90;;;;;;4996981;28;20226;-74
2023/03/07 12:22:13;;;;;;;5.60;3.03;;;9.30;99.90;;;;;;4987731;28;20176;-79
2023/03/07 12:24:52;;;;;;;4.40;3.20;;;9.40;99.90;;;;;;5013191;28;20179;-78
2023/03/07 12:27:30;;;;;;;3.93;2.80;;;9.30;99.90;;;;;;4996756;28;20278;-75
2023/03/07 12:30:05;;;;;;;4.30;3.43;;;9.30;99.90;;;;;;4997016;28;20289;-78
2023/03/07 12:32:37;;;;;;;4.27;3.23;;;9.30;99.90;;;;;;5000532;28;20232;-77
2023/03/07 12:35:16;;;;;;;3.87;3.10;;;9.30;99.90;;;;;;4980588;28;20224;-78
2023/03/07 12:37:46;;;;;;;4.20;3.30;;;9.30;99.90;;;;;;4994860;28;20179;-65
2023/03/07 12:40:27;;;;;;;3.90;3.23;;;9.30;99.90;;;;;;4992434;28;20180;-65
2023/03/07 12:43:15;;;;;;;4.90;3.63;;;9.30;99.90;;;;;;4994491;28;20289;-65
2023/03/07 12:46:07;;;;;;;4.73;3.60;;;9.30;99.90;;;;;;4992184;28;20202;-65
2023/03/07 12:48:47;;;;;;;5.40;3.63;;;9.30;99.90;;;;;;4993794;28;20289;-65
2023/03/07 12:51:15;;;;;;;4.83;3.37;;;9.30;99.90;;;;;;4993248;28;20387;-65
2023/03/07 12:53:54;;;;;;;4.67;3.20;;;9.30;99.90;;;;;;4993583;28;20180;-65
2023/03/07 12:56:29;;;;;;;5.13;3.07;;;9.30;99.90;;;;;;4993978;28;20206;-65
2023/03/07 12:59:18;;;;;;;4.93;3.60;;;9.30;99.90;;;;;;4994503;28;20170;-66
2023/03/07 13:02:09;;;;;;;4.73;3.40;;;9.30;99.90;;;;;;4993348;28;20203;-66
2023/03/07 13:04:42;;;;;;;7.57;3.60;;;9.30;99.90;;;;;;4993360;28;20217;-65
2023/03/07 13:07:15;;;;;;;5.77;4.10;;;9.40;99.90;;;;;;4995381;28;20205;-65
2023/03/07 13:09:43;;;;;;;5.23;4.00;;;9.40;99.90;;;;;;4994874;28;20180;-65
2023/03/07 13:12:15;;;;;;;4.63;3.60;;;9.40;99.90;;;;;;4991649;28;20182;-66
2023/03/07 13:14:46;;;;;;;6.17;4.30;;;9.40;99.90;;;;;;4994437;28;20326;-66